sensor_id;sensor_type;location;lat;lon;timestamp;P1;durP1;ratioP1;P2;durP2;ratioP2
50429;SDS011;36359;41.556;-8.418;2023-02-28T00:01:21;6.63;;;2.90;;
50429;SDS011;36359;41.556;-8.418;2023-02-28T00:03:47;7.87;;;2.97;;
50429;SDS011;36359;41.556;-8.418;2023-02-28T00:06:13;6.77;;;2.20;;
50429;SDS011;36359;41.556;-8.418;2023-02-28T00:08:39;7.10;;;3.07;;
50429;SDS011;36359;41.556;-8.418;2023-02-28T00:11:06;7.50;;;3.40;;
50429;SDS011;36359;41.556;-8.418;2023-02-28T00:13:34;8.87;;;3.67;;
50429;SDS011;36359;41.556;-8.418;2023-02-28T00:16:03;9.10;;;4.20;;
50429;SDS011;36359;41.556;-8.418;2023-02-28T00:18:31;8.10;;;4.47;;
50429;SDS011;36359;41.556;-8.418;2023-02-28T00:21:00;7.87;;;3.90;;
50429;SDS011;36359;41.556;-8.418;2023-02-28T00:23:27;9.20;;;4.17;;
50429;SDS011;36359;41.556;-8.418;2023-02-28T00:25:52;6.23;;;3.20;;
50429;SDS011;36359;41.556;-8.418;2023-02-28T00:28:19;7.47;;;3.57;;
50429;SDS011;36359;41.556;-8.418;2023-02-28T00:30:45;6.57;;;3.70;;
50429;SDS011;36359;41.556;-8.418;2023-02-28T00:33:11;8.67;;;4.30;;
50429;SDS011;36359;41.556;-8.418;2023-02-28T00:35:37;8.70;;;4.57;;
50429;SDS011;36359;41.556;-8.418;2023-02-28T00:38:03;6.00;;;3.30;;
50429;SDS011;36359;41.556;-8.418;2023-02-28T00:40:28;7.83;;;3.20;;
50429;SDS011;36359;41.556;-8.418;2023-02-28T00:42:54;6.13;;;3.20;;
50429;SDS011;36359;41.556;-8.418;2023-02-28T00:45:20;7.67;;;3.40;;
50429;SDS011;36359;41.556;-8.418;2023-02-28T00:47:46;4.80;;;2.60;;
50429;SDS011;36359;41.556;-8.418;2023-02-28T00:50:16;7.00;;;2.43;;
50429;SDS011;36359;41.556;-8.418;2023-02-28T00:52:43;5.93;;;2.47;;
50429;SDS011;36359;41.556;-8.418;2023-02-28T00:55:10;5.67;;;2.23;;
50429;SDS011;36359;41.556;-8.418;2023-02-28T00:57:35;5.10;;;2.13;;
50429;SDS011;36359;41.556;-8.418;2023-02-28T01:00:02;7.63;;;2.63;;
50429;SDS011;36359;41.556;-8.418;2023-02-28T01:02:29;3.83;;;2.60;;
50429;SDS011;36359;41.556;-8.418;2023-02-28T01:04:55;7.30;;;2.37;;
50429;SDS011;36359;41.556;-8.418;2023-02-28T01:07:22;5.57;;;2.60;;
50429;SDS011;36359;41.556;-8.418;2023-02-28T01:09:48;7.20;;;2.87;;
50429;SDS011;36359;41.556;-8.418;2023-02-28T01:12:14;9.20;;;3.23;;
50429;SDS011;36359;41.556;-8.418;2023-02-28T01:14:39;8.40;;;3.37;;
50429;SDS011;36359;41.556;-8.418;2023-02-28T01:17:05;7.00;;;3.20;;
50429;SDS011;36359;41.556;-8.418;2023-02-28T01:19:31;6.07;;;2.90;;
50429;SDS011;36359;41.556;-8.418;2023-02-28T01:22:00;8.40;;;2.80;;
50429;SDS011;36359;41.556;-8.418;2023-02-28T01:24:30;10.00;;;3.17;;
50429;SDS011;36359;41.556;-8.418;2023-02-28T01:26:56;9.67;;;2.30;;
50429;SDS011;36359;41.556;-8.418;2023-02-28T01:29:22;8.70;;;2.90;;
50429;SDS011;36359;41.556;-8.418;2023-02-28T01:31:47;6.90;;;2.50;;
50429;SDS011;36359;41.556;-8.418;2023-02-28T01:34:13;8.47;;;2.83;;
50429;SDS011;36359;41.556;-8.418;2023-02-28T01:36:39;4.50;;;2.10;;
50429;SDS011;36359;41.556;-8.418;2023-02-28T01:39:04;5.37;;;2.17;;
50429;SDS011;36359;41.556;-8.418;2023-02-28T01:41:31;5.87;;;2.43;;
50429;SDS011;36359;41.556;-8.418;2023-02-28T01:46:29;6.43;;;2.10;;
50429;SDS011;36359;41.556;-8.418;2023-02-28T01:49:08;6.20;;;2.10;;
50429;SDS011;36359;41.556;-8.418;2023-02-28T01:51:45;8.60;;;2.47;;
50429;SDS011;36359;41.556;-8.418;2023-02-28T01:54:17;5.33;;;2.20;;
50429;SDS011;36359;41.556;-8.418;2023-02-28T01:57:22;8.63;;;2.63;;
50429;SDS011;36359;41.556;-8.418;2023-02-28T01:59:45;10.43;;;2.30;;
50429;SDS011;36359;41.556;-8.418;2023-02-28T02:02:16;7.73;;;2.87;;
50429;SDS011;36359;41.556;-8.418;2023-02-28T02:04:55;6.93;;;2.60;;
50429;SDS011;36359;41.556;-8.418;2023-02-28T02:07:29;5.40;;;2.50;;
50429;SDS011;36359;41.556;-8.418;2023-02-28T02:12:53;4.47;;;2.13;;
50429;SDS011;36359;41.556;-8.418;2023-02-28T02:15:40;8.17;;;2.87;;
50429;SDS011;36359;41.556;-8.418;2023-02-28T02:21:24;5.30;;;2.40;;
50429;SDS011;36359;41.556;-8.418;2023-02-28T02:41:33;5.73;;;2.50;;
50429;SDS011;36359;41.556;-8.418;2023-02-28T02:44:16;6.72;;;2.60;;
50429;SDS011;36359;41.556;-8.418;2023-02-28T02:46:47;7.60;;;2.50;;
50429;SDS011;36359;41.556;-8.418;2023-02-28T02:49:20;7.03;;;2.30;;
50429;SDS011;36359;41.556;-8.418;2023-02-28T02:54:27;5.20;;;2.47;;
50429;SDS011;36359;41.556;-8.418;2023-02-28T02:57:09;4.13;;;2.30;;
50429;SDS011;36359;41.556;-8.418;2023-02-28T02:59:40;7.23;;;3.23;;
50429;SDS011;36359;41.556;-8.418;2023-02-28T03:02:08;6.63;;;2.70;;
50429;SDS011;36359;41.556;-8.418;2023-02-28T03:04:46;5.80;;;2.17;;
50429;SDS011;36359;41.556;-8.418;2023-02-28T03:07:20;5.87;;;2.50;;
50429;SDS011;36359;41.556;-8.418;2023-02-28T03:09:52;4.80;;;2.20;;
50429;SDS011;36359;41.556;-8.418;2023-02-28T03:12:19;4.93;;;2.43;;
50429;SDS011;36359;41.556;-8.418;2023-02-28T03:14:56;4.73;;;2.00;;
50429;SDS011;36359;41.556;-8.418;2023-02-28T03:26:11;7.40;;;2.80;;
50429;SDS011;36359;41.556;-8.418;2023-02-28T03:31:15;7.57;;;2.33;;
50429;SDS011;36359;41.556;-8.418;2023-02-28T03:33:51;6.00;;;2.30;;
50429;SDS011;36359;41.556;-8.418;2023-02-28T03:36:27;6.83;;;2.10;;
50429;SDS011;36359;41.556;-8.418;2023-02-28T03:39:01;4.17;;;1.80;;
50429;SDS011;36359;41.556;-8.418;2023-02-28T03:44:08;3.97;;;1.67;;
50429;SDS011;36359;41.556;-8.418;2023-02-28T03:46:42;4.57;;;1.60;;
50429;SDS011;36359;41.556;-8.418;2023-02-28T03:51:42;5.77;;;2.07;;
50429;SDS011;36359;41.556;-8.418;2023-02-28T03:54:12;4.30;;;2.53;;
50429;SDS011;36359;41.556;-8.418;2023-02-28T03:56:46;6.10;;;2.30;;
50429;SDS011;36359;41.556;-8.418;2023-02-28T03:59:26;4.37;;;1.97;;
50429;SDS011;36359;41.556;-8.418;2023-02-28T04:01:56;4.17;;;2.07;;
50429;SDS011;36359;41.556;-8.418;2023-02-28T04:04:23;3.60;;;1.80;;
50429;SDS011;36359;41.556;-8.418;2023-02-28T04:06:50;4.43;;;2.50;;
50429;SDS011;36359;41.556;-8.418;2023-02-28T04:09:16;5.10;;;2.00;;
50429;SDS011;36359;41.556;-8.418;2023-02-28T04:11:48;5.77;;;2.77;;
50429;SDS011;36359;41.556;-8.418;2023-02-28T04:14:20;5.97;;;1.70;;
50429;SDS011;36359;41.556;-8.418;2023-02-28T04:16:47;6.03;;;2.13;;
50429;SDS011;36359;41.556;-8.418;2023-02-28T04:19:13;5.30;;;2.27;;
50429;SDS011;36359;41.556;-8.418;2023-02-28T04:21:43;4.77;;;1.50;;
50429;SDS011;36359;41.556;-8.418;2023-02-28T04:24:12;2.70;;;1.20;;
50429;SDS011;36359;41.556;-8.418;2023-02-28T04:26:40;3.50;;;1.07;;
50429;SDS011;36359;41.556;-8.418;2023-02-28T04:29:08;3.57;;;0.90;;
50429;SDS011;36359;41.556;-8.418;2023-02-28T04:31:35;6.60;;;1.57;;
50429;SDS011;36359;41.556;-8.418;2023-02-28T04:34:01;2.37;;;1.10;;
50429;SDS011;36359;41.556;-8.418;2023-02-28T04:36:27;2.93;;;1.10;;
50429;SDS011;36359;41.556;-8.418;2023-02-28T04:38:53;3.70;;;1.60;;
50429;SDS011;36359;41.556;-8.418;2023-02-28T04:41:20;3.60;;;1.70;;
50429;SDS011;36359;41.556;-8.418;2023-02-28T04:43:46;5.80;;;2.07;;
50429;SDS011;36359;41.556;-8.418;2023-02-28T04:46:12;4.33;;;1.73;;
50429;SDS011;36359;41.556;-8.418;2023-02-28T04:48:38;7.43;;;2.00;;
50429;SDS011;36359;41.556;-8.418;2023-02-28T04:51:06;4.13;;;2.03;;
50429;SDS011;36359;41.556;-8.418;2023-02-28T04:53:34;3.47;;;1.33;;
50429;SDS011;36359;41.556;-8.418;2023-02-28T04:56:00;6.03;;;1.53;;
50429;SDS011;36359;41.556;-8.418;2023-02-28T04:58:26;4.03;;;1.67;;
50429;SDS011;36359;41.556;-8.418;2023-02-28T05:00:53;4.97;;;1.10;;
50429;SDS011;36359;41.556;-8.418;2023-02-28T05:03:20;4.50;;;0.97;;
50429;SDS011;36359;41.556;-8.418;2023-02-28T05:05:47;5.67;;;1.50;;
50429;SDS011;36359;41.556;-8.418;2023-02-28T05:08:13;3.50;;;1.20;;
50429;SDS011;36359;41.556;-8.418;2023-02-28T05:10:38;3.67;;;1.20;;
50429;SDS011;36359;41.556;-8.418;2023-02-28T05:13:04;3.23;;;0.63;;
50429;SDS011;36359;41.556;-8.418;2023-02-28T05:15:30;4.27;;;0.80;;
50429;SDS011;36359;41.556;-8.418;2023-02-28T05:17:56;1.87;;;0.97;;
50429;SDS011;36359;41.556;-8.418;2023-02-28T05:20:21;4.13;;;1.00;;
50429;SDS011;36359;41.556;-8.418;2023-02-28T05:25:20;3.43;;;0.60;;
50429;SDS011;36359;41.556;-8.418;2023-02-28T05:27:47;2.97;;;0.90;;
50429;SDS011;36359;41.556;-8.418;2023-02-28T05:30:14;3.00;;;0.60;;
50429;SDS011;36359;41.556;-8.418;2023-02-28T05:32:40;2.87;;;0.90;;
50429;SDS011;36359;41.556;-8.418;2023-02-28T05:35:10;2.20;;;0.80;;
50429;SDS011;36359;41.556;-8.418;2023-02-28T05:37:37;4.03;;;0.97;;
50429;SDS011;36359;41.556;-8.418;2023-02-28T05:40:04;3.67;;;0.83;;
50429;SDS011;36359;41.556;-8.418;2023-02-28T05:42:37;4.77;;;1.10;;
50429;SDS011;36359;41.556;-8.418;2023-02-28T05:45:03;4.13;;;1.17;;
50429;SDS011;36359;41.556;-8.418;2023-02-28T05:47:29;3.10;;;1.03;;
50429;SDS011;36359;41.556;-8.418;2023-02-28T05:49:55;5.33;;;1.93;;
50429;SDS011;36359;41.556;-8.418;2023-02-28T05:52:21;5.27;;;1.83;;
50429;SDS011;36359;41.556;-8.418;2023-02-28T05:54:47;8.70;;;3.50;;
50429;SDS011;36359;41.556;-8.418;2023-02-28T05:57:13;10.67;;;4.03;;
50429;SDS011;36359;41.556;-8.418;2023-02-28T05:59:38;7.17;;;3.20;;
50429;SDS011;36359;41.556;-8.418;2023-02-28T06:02:05;4.43;;;2.07;;
50429;SDS011;36359;41.556;-8.418;2023-02-28T06:04:36;5.32;;;2.08;;
50429;SDS011;36359;41.556;-8.418;2023-02-28T06:07:01;5.07;;;1.80;;
50429;SDS011;36359;41.556;-8.418;2023-02-28T06:09:27;5.33;;;1.70;;
50429;SDS011;36359;41.556;-8.418;2023-02-28T06:11:53;7.20;;;1.93;;
50429;SDS011;36359;41.556;-8.418;2023-02-28T06:14:19;3.37;;;1.40;;
50429;SDS011;36359;41.556;-8.418;2023-02-28T06:16:48;6.27;;;1.80;;
50429;SDS011;36359;41.556;-8.418;2023-02-28T06:19:13;3.73;;;1.53;;
50429;SDS011;36359;41.556;-8.418;2023-02-28T06:21:40;4.30;;;1.53;;
50429;SDS011;36359;41.556;-8.418;2023-02-28T06:24:06;4.50;;;1.53;;
50429;SDS011;36359;41.556;-8.418;2023-02-28T06:26:33;8.20;;;4.53;;
50429;SDS011;36359;41.556;-8.418;2023-02-28T06:28:59;23.63;;;12.17;;
50429;SDS011;36359;41.556;-8.418;2023-02-28T06:31:26;13.20;;;7.40;;
50429;SDS011;36359;41.556;-8.418;2023-02-28T06:33:54;12.00;;;5.40;;
50429;SDS011;36359;41.556;-8.418;2023-02-28T06:36:20;8.40;;;4.00;;
50429;SDS011;36359;41.556;-8.418;2023-02-28T06:38:46;7.50;;;2.90;;
50429;SDS011;36359;41.556;-8.418;2023-02-28T06:41:16;6.80;;;2.47;;
50429;SDS011;36359;41.556;-8.418;2023-02-28T06:43:43;6.13;;;2.00;;
50429;SDS011;36359;41.556;-8.418;2023-02-28T06:46:10;8.43;;;2.47;;
50429;SDS011;36359;41.556;-8.418;2023-02-28T06:48:39;7.00;;;2.27;;
50429;SDS011;36359;41.556;-8.418;2023-02-28T06:51:05;7.57;;;1.50;;
50429;SDS011;36359;41.556;-8.418;2023-02-28T06:53:31;4.73;;;1.50;;
50429;SDS011;36359;41.556;-8.418;2023-02-28T06:55:58;5.40;;;1.80;;
50429;SDS011;36359;41.556;-8.418;2023-02-28T06:58:24;4.53;;;1.77;;
50429;SDS011;36359;41.556;-8.418;2023-02-28T07:00:51;14.13;;;7.10;;
50429;SDS011;36359;41.556;-8.418;2023-02-28T07:03:17;7.73;;;4.23;;
50429;SDS011;36359;41.556;-8.418;2023-02-28T07:05:44;5.47;;;3.00;;
50429;SDS011;36359;41.556;-8.418;2023-02-28T07:08:10;8.50;;;3.17;;
50429;SDS011;36359;41.556;-8.418;2023-02-28T07:10:37;10.07;;;3.90;;
50429;SDS011;36359;41.556;-8.418;2023-02-28T07:13:03;7.13;;;3.10;;
50429;SDS011;36359;41.556;-8.418;2023-02-28T07:15:32;6.90;;;2.13;;
50429;SDS011;36359;41.556;-8.418;2023-02-28T07:17:58;6.20;;;1.90;;
50429;SDS011;36359;41.556;-8.418;2023-02-28T07:20:23;7.17;;;2.40;;
50429;SDS011;36359;41.556;-8.418;2023-02-28T07:22:50;7.70;;;3.70;;
50429;SDS011;36359;41.556;-8.418;2023-02-28T07:25:27;8.13;;;4.00;;
50429;SDS011;36359;41.556;-8.418;2023-02-28T07:27:54;9.53;;;3.83;;
50429;SDS011;36359;41.556;-8.418;2023-02-28T07:30:21;4.90;;;1.80;;
50429;SDS011;36359;41.556;-8.418;2023-02-28T07:32:47;5.77;;;1.90;;
50429;SDS011;36359;41.556;-8.418;2023-02-28T07:35:13;6.67;;;2.23;;
50429;SDS011;36359;41.556;-8.418;2023-02-28T07:37:40;11.70;;;4.30;;
50429;SDS011;36359;41.556;-8.418;2023-02-28T07:40:09;14.83;;;7.60;;
50429;SDS011;36359;41.556;-8.418;2023-02-28T07:42:40;16.13;;;7.80;;
50429;SDS011;36359;41.556;-8.418;2023-02-28T07:45:08;19.70;;;8.33;;
50429;SDS011;36359;41.556;-8.418;2023-02-28T07:47:37;16.53;;;5.70;;
50429;SDS011;36359;41.556;-8.418;2023-02-28T07:50:04;11.37;;;3.83;;
50429;SDS011;36359;41.556;-8.418;2023-02-28T07:52:31;6.97;;;1.90;;
50429;SDS011;36359;41.556;-8.418;2023-02-28T07:54:57;13.70;;;7.13;;
50429;SDS011;36359;41.556;-8.418;2023-02-28T07:57:23;16.17;;;5.77;;
50429;SDS011;36359;41.556;-8.418;2023-02-28T07:59:49;26.37;;;11.00;;
50429;SDS011;36359;41.556;-8.418;2023-02-28T08:02:15;13.57;;;5.93;;
50429;SDS011;36359;41.556;-8.418;2023-02-28T08:04:42;12.63;;;6.10;;
50429;SDS011;36359;41.556;-8.418;2023-02-28T08:07:08;11.50;;;4.50;;
50429;SDS011;36359;41.556;-8.418;2023-02-28T08:09:38;21.17;;;8.60;;
50429;SDS011;36359;41.556;-8.418;2023-02-28T08:12:06;19.17;;;7.33;;
50429;SDS011;36359;41.556;-8.418;2023-02-28T08:14:36;18.75;;;6.97;;
50429;SDS011;36359;41.556;-8.418;2023-02-28T08:17:03;16.00;;;6.70;;
50429;SDS011;36359;41.556;-8.418;2023-02-28T08:19:30;11.43;;;3.80;;
50429;SDS011;36359;41.556;-8.418;2023-02-28T08:21:57;12.10;;;3.60;;
50429;SDS011;36359;41.556;-8.418;2023-02-28T08:24:24;9.13;;;3.33;;
50429;SDS011;36359;41.556;-8.418;2023-02-28T08:26:51;14.63;;;4.00;;
50429;SDS011;36359;41.556;-8.418;2023-02-28T08:29:18;16.63;;;5.17;;
50429;SDS011;36359;41.556;-8.418;2023-02-28T08:31:43;13.20;;;4.63;;
50429;SDS011;36359;41.556;-8.418;2023-02-28T08:34:10;18.80;;;4.77;;
50429;SDS011;36359;41.556;-8.418;2023-02-28T08:36:38;25.03;;;4.93;;
50429;SDS011;36359;41.556;-8.418;2023-02-28T08:39:06;12.53;;;4.90;;
50429;SDS011;36359;41.556;-8.418;2023-02-28T08:41:33;14.50;;;4.60;;
50429;SDS011;36359;41.556;-8.418;2023-02-28T08:43:59;16.67;;;5.40;;
50429;SDS011;36359;41.556;-8.418;2023-02-28T08:46:25;22.87;;;6.10;;
50429;SDS011;36359;41.556;-8.418;2023-02-28T08:48:55;24.10;;;7.60;;
50429;SDS011;36359;41.556;-8.418;2023-02-28T08:51:24;23.97;;;8.17;;
50429;SDS011;36359;41.556;-8.418;2023-02-28T08:53:54;18.93;;;7.37;;
50429;SDS011;36359;41.556;-8.418;2023-02-28T08:56:23;14.57;;;5.93;;
50429;SDS011;36359;41.556;-8.418;2023-02-28T08:58:56;12.03;;;5.33;;
50429;SDS011;36359;41.556;-8.418;2023-02-28T09:01:26;12.37;;;3.60;;
50429;SDS011;36359;41.556;-8.418;2023-02-28T09:04:03;7.40;;;2.73;;
50429;SDS011;36359;41.556;-8.418;2023-02-28T09:06:33;10.87;;;3.27;;
50429;SDS011;36359;41.556;-8.418;2023-02-28T09:08:58;10.37;;;3.70;;
50429;SDS011;36359;41.556;-8.418;2023-02-28T09:11:26;15.40;;;4.97;;
50429;SDS011;36359;41.556;-8.418;2023-02-28T09:13:53;11.77;;;5.00;;
50429;SDS011;36359;41.556;-8.418;2023-02-28T09:16:21;11.73;;;4.63;;
50429;SDS011;36359;41.556;-8.418;2023-02-28T09:18:47;17.00;;;6.37;;
50429;SDS011;36359;41.556;-8.418;2023-02-28T09:21:22;19.87;;;6.30;;
50429;SDS011;36359;41.556;-8.418;2023-02-28T09:23:52;16.93;;;5.47;;
50429;SDS011;36359;41.556;-8.418;2023-02-28T09:26:19;9.00;;;3.10;;
50429;SDS011;36359;41.556;-8.418;2023-02-28T09:28:47;7.37;;;2.60;;
50429;SDS011;36359;41.556;-8.418;2023-02-28T09:31:14;6.37;;;2.30;;
50429;SDS011;36359;41.556;-8.418;2023-02-28T09:33:53;7.37;;;2.17;;
50429;SDS011;36359;41.556;-8.418;2023-02-28T09:36:21;7.33;;;2.37;;
50429;SDS011;36359;41.556;-8.418;2023-02-28T09:38:48;7.07;;;1.90;;
50429;SDS011;36359;41.556;-8.418;2023-02-28T09:43:48;4.72;;;1.30;;
50429;SDS011;36359;41.556;-8.418;2023-02-28T09:46:21;4.78;;;0.90;;
50429;SDS011;36359;41.556;-8.418;2023-02-28T09:48:51;4.73;;;0.90;;
50429;SDS011;36359;41.556;-8.418;2023-02-28T09:54:02;5.40;;;1.63;;
50429;SDS011;36359;41.556;-8.418;2023-02-28T09:56:39;16.63;;;4.43;;
50429;SDS011;36359;41.556;-8.418;2023-02-28T10:04:59;4.07;;;1.15;;
50429;SDS011;36359;41.556;-8.418;2023-02-28T10:07:41;3.33;;;1.20;;
50429;SDS011;36359;41.556;-8.418;2023-02-28T10:10:45;5.90;;;1.40;;
50429;SDS011;36359;41.556;-8.418;2023-02-28T10:13:23;13.23;;;3.13;;
50429;SDS011;36359;41.556;-8.418;2023-02-28T10:15:55;5.20;;;1.70;;
50429;SDS011;36359;41.556;-8.418;2023-02-28T10:18:30;4.37;;;1.60;;
50429;SDS011;36359;41.556;-8.418;2023-02-28T10:21:04;10.40;;;1.73;;
50429;SDS011;36359;41.556;-8.418;2023-02-28T10:23:32;5.13;;;2.10;;
50429;SDS011;36359;41.556;-8.418;2023-02-28T10:26:12;3.70;;;1.27;;
50429;SDS011;36359;41.556;-8.418;2023-02-28T10:28:44;5.83;;;1.30;;
50429;SDS011;36359;41.556;-8.418;2023-02-28T10:31:20;6.57;;;2.07;;
50429;SDS011;36359;41.556;-8.418;2023-02-28T10:33:46;4.63;;;1.00;;
50429;SDS011;36359;41.556;-8.418;2023-02-28T10:36:20;4.53;;;1.37;;
50429;SDS011;36359;41.556;-8.418;2023-02-28T10:38:47;6.13;;;1.70;;
50429;SDS011;36359;41.556;-8.418;2023-02-28T10:41:34;6.73;;;1.50;;
50429;SDS011;36359;41.556;-8.418;2023-02-28T10:46:48;4.90;;;1.50;;
50429;SDS011;36359;41.556;-8.418;2023-02-28T10:51:47;3.50;;;1.70;;
50429;SDS011;36359;41.556;-8.418;2023-02-28T10:54:28;3.83;;;1.40;;
50429;SDS011;36359;41.556;-8.418;2023-02-28T10:59:43;3.13;;;1.13;;
50429;SDS011;36359;41.556;-8.418;2023-02-28T11:04:56;4.60;;;1.40;;
50429;SDS011;36359;41.556;-8.418;2023-02-28T11:07:23;3.40;;;0.83;;
50429;SDS011;36359;41.556;-8.418;2023-02-28T11:09:51;5.20;;;0.77;;
50429;SDS011;36359;41.556;-8.418;2023-02-28T11:14:52;4.03;;;0.80;;
50429;SDS011;36359;41.556;-8.418;2023-02-28T11:17:22;5.78;;;1.15;;
50429;SDS011;36359;41.556;-8.418;2023-02-28T11:20:18;5.47;;;1.30;;
50429;SDS011;36359;41.556;-8.418;2023-02-28T11:22:47;3.40;;;1.20;;
50429;SDS011;36359;41.556;-8.418;2023-02-28T11:25:19;8.03;;;1.20;;
50429;SDS011;36359;41.556;-8.418;2023-02-28T11:27:51;6.87;;;1.33;;
50429;SDS011;36359;41.556;-8.418;2023-02-28T11:33:40;2.57;;;0.70;;
50429;SDS011;36359;41.556;-8.418;2023-02-28T11:36:33;3.30;;;0.63;;
50429;SDS011;36359;41.556;-8.418;2023-02-28T11:39:00;3.20;;;0.90;;
50429;SDS011;36359;41.556;-8.418;2023-02-28T11:44:23;2.90;;;0.90;;
50429;SDS011;36359;41.556;-8.418;2023-02-28T11:47:04;6.93;;;2.10;;
50429;SDS011;36359;41.556;-8.418;2023-02-28T11:50:20;4.27;;;1.00;;
50429;SDS011;36359;41.556;-8.418;2023-02-28T11:52:53;3.23;;;1.00;;
50429;SDS011;36359;41.556;-8.418;2023-02-28T11:55:48;3.13;;;1.00;;
50429;SDS011;36359;41.556;-8.418;2023-02-28T11:58:33;4.90;;;1.50;;
50429;SDS011;36359;41.556;-8.418;2023-02-28T12:06:40;8.57;;;2.80;;
50429;SDS011;36359;41.556;-8.418;2023-02-28T12:11:59;2.07;;;0.70;;
50429;SDS011;36359;41.556;-8.418;2023-02-28T12:26:40;2.73;;;0.70;;
50429;SDS011;36359;41.556;-8.418;2023-02-28T12:32:01;2.63;;;0.85;;
50429;SDS011;36359;41.556;-8.418;2023-02-28T12:34:33;2.33;;;0.80;;
50429;SDS011;36359;41.556;-8.418;2023-02-28T12:37:04;2.22;;;1.08;;
50429;SDS011;36359;41.556;-8.418;2023-02-28T12:39:44;1.63;;;0.60;;
50429;SDS011;36359;41.556;-8.418;2023-02-28T12:42:13;3.90;;;0.90;;
50429;SDS011;36359;41.556;-8.418;2023-02-28T12:45:03;2.40;;;0.93;;
50429;SDS011;36359;41.556;-8.418;2023-02-28T12:47:29;3.53;;;0.93;;
50429;SDS011;36359;41.556;-8.418;2023-02-28T12:49:59;3.73;;;0.90;;
50429;SDS011;36359;41.556;-8.418;2023-02-28T12:55:23;3.20;;;0.80;;
50429;SDS011;36359;41.556;-8.418;2023-02-28T12:58:13;2.17;;;0.90;;
50429;SDS011;36359;41.556;-8.418;2023-02-28T13:06:17;2.77;;;1.10;;
50429;SDS011;36359;41.556;-8.418;2023-02-28T13:09:11;2.77;;;0.90;;
50429;SDS011;36359;41.556;-8.418;2023-02-28T13:11:44;3.53;;;0.90;;
50429;SDS011;36359;41.556;-8.418;2023-02-28T13:14:26;3.27;;;0.83;;
50429;SDS011;36359;41.556;-8.418;2023-02-28T13:16:57;2.77;;;0.90;;
50429;SDS011;36359;41.556;-8.418;2023-02-28T13:19:31;2.83;;;0.90;;
50429;SDS011;36359;41.556;-8.418;2023-02-28T13:22:00;4.80;;;1.20;;
50429;SDS011;36359;41.556;-8.418;2023-02-28T13:27:11;4.43;;;1.20;;
50429;SDS011;36359;41.556;-8.418;2023-02-28T13:29:39;2.30;;;0.60;;
50429;SDS011;36359;41.556;-8.418;2023-02-28T13:34:39;3.23;;;0.93;;
50429;SDS011;36359;41.556;-8.418;2023-02-28T13:39:55;2.33;;;0.73;;
50429;SDS011;36359;41.556;-8.418;2023-02-28T13:55:37;4.00;;;0.83;;
50429;SDS011;36359;41.556;-8.418;2023-02-28T14:06:29;3.80;;;0.70;;
50429;SDS011;36359;41.556;-8.418;2023-02-28T14:11:45;2.63;;;0.90;;
50429;SDS011;36359;41.556;-8.418;2023-02-28T14:17:03;2.58;;;0.63;;
50429;SDS011;36359;41.556;-8.418;2023-02-28T14:19:31;3.07;;;0.80;;
50429;SDS011;36359;41.556;-8.418;2023-02-28T14:22:05;2.60;;;0.50;;
50429;SDS011;36359;41.556;-8.418;2023-02-28T14:27:51;3.53;;;0.70;;
50429;SDS011;36359;41.556;-8.418;2023-02-28T14:36:01;8.20;;;0.70;;
50429;SDS011;36359;41.556;-8.418;2023-02-28T14:38:31;6.33;;;0.70;;
50429;SDS011;36359;41.556;-8.418;2023-02-28T14:41:01;4.97;;;1.17;;
50429;SDS011;36359;41.556;-8.418;2023-02-28T14:43:37;3.20;;;0.87;;
50429;SDS011;36359;41.556;-8.418;2023-02-28T14:46:14;3.37;;;1.00;;
50429;SDS011;36359;41.556;-8.418;2023-02-28T14:48:41;4.33;;;1.10;;
50429;SDS011;36359;41.556;-8.418;2023-02-28T14:51:11;5.20;;;1.00;;
50429;SDS011;36359;41.556;-8.418;2023-02-28T14:53:43;4.33;;;1.07;;
50429;SDS011;36359;41.556;-8.418;2023-02-28T15:01:21;4.57;;;1.93;;
50429;SDS011;36359;41.556;-8.418;2023-02-28T15:03:47;4.18;;;1.00;;
50429;SDS011;36359;41.556;-8.418;2023-02-28T15:06:22;5.25;;;1.33;;
50429;SDS011;36359;41.556;-8.418;2023-02-28T15:08:56;6.57;;;1.30;;
50429;SDS011;36359;41.556;-8.418;2023-02-28T15:11:35;2.22;;;1.17;;
50429;SDS011;36359;41.556;-8.418;2023-02-28T15:14:04;5.40;;;1.45;;
50429;SDS011;36359;41.556;-8.418;2023-02-28T15:16:37;4.15;;;1.30;;
50429;SDS011;36359;41.556;-8.418;2023-02-28T15:21:39;4.37;;;1.67;;
50429;SDS011;36359;41.556;-8.418;2023-02-28T15:24:15;4.97;;;1.97;;
50429;SDS011;36359;41.556;-8.418;2023-02-28T15:26:54;5.05;;;1.63;;
50429;SDS011;36359;41.556;-8.418;2023-02-28T15:29:23;3.43;;;1.53;;
50429;SDS011;36359;41.556;-8.418;2023-02-28T15:31:56;4.50;;;1.37;;
50429;SDS011;36359;41.556;-8.418;2023-02-28T15:34:36;5.53;;;1.10;;
50429;SDS011;36359;41.556;-8.418;2023-02-28T15:37:25;3.78;;;1.15;;
50429;SDS011;36359;41.556;-8.418;2023-02-28T15:39:52;4.33;;;1.20;;
50429;SDS011;36359;41.556;-8.418;2023-02-28T15:42:20;6.43;;;1.63;;
50429;SDS011;36359;41.556;-8.418;2023-02-28T15:44:47;4.73;;;1.30;;
50429;SDS011;36359;41.556;-8.418;2023-02-28T15:49:47;3.73;;;0.80;;
50429;SDS011;36359;41.556;-8.418;2023-02-28T15:52:14;4.93;;;1.43;;
50429;SDS011;36359;41.556;-8.418;2023-02-28T15:54:43;3.23;;;0.90;;
50429;SDS011;36359;41.556;-8.418;2023-02-28T15:57:13;2.87;;;0.80;;
50429;SDS011;36359;41.556;-8.418;2023-02-28T15:59:45;4.43;;;1.10;;
50429;SDS011;36359;41.556;-8.418;2023-02-28T16:02:17;4.67;;;1.03;;
50429;SDS011;36359;41.556;-8.418;2023-02-28T16:05:12;6.23;;;1.40;;
50429;SDS011;36359;41.556;-8.418;2023-02-28T16:08:00;4.30;;;0.77;;
50429;SDS011;36359;41.556;-8.418;2023-02-28T16:10:36;3.90;;;0.53;;
50429;SDS011;36359;41.556;-8.418;2023-02-28T16:13:02;5.93;;;0.93;;
50429;SDS011;36359;41.556;-8.418;2023-02-28T16:15:29;3.87;;;0.93;;
50429;SDS011;36359;41.556;-8.418;2023-02-28T16:18:00;3.53;;;0.60;;
50429;SDS011;36359;41.556;-8.418;2023-02-28T16:20:30;4.90;;;0.43;;
50429;SDS011;36359;41.556;-8.418;2023-02-28T16:22:56;4.63;;;0.63;;
50429;SDS011;36359;41.556;-8.418;2023-02-28T16:25:29;4.67;;;0.60;;
50429;SDS011;36359;41.556;-8.418;2023-02-28T16:28:02;4.20;;;0.80;;
50429;SDS011;36359;41.556;-8.418;2023-02-28T16:30:29;2.90;;;0.50;;
50429;SDS011;36359;41.556;-8.418;2023-02-28T16:32:57;3.30;;;0.70;;
50429;SDS011;36359;41.556;-8.418;2023-02-28T16:35:24;6.83;;;0.83;;
50429;SDS011;36359;41.556;-8.418;2023-02-28T16:37:53;3.07;;;0.60;;
50429;SDS011;36359;41.556;-8.418;2023-02-28T16:40:21;5.10;;;0.70;;
50429;SDS011;36359;41.556;-8.418;2023-02-28T16:42:48;2.60;;;0.53;;
50429;SDS011;36359;41.556;-8.418;2023-02-28T16:45:26;3.50;;;1.27;;
50429;SDS011;36359;41.556;-8.418;2023-02-28T16:47:53;4.37;;;1.10;;
50429;SDS011;36359;41.556;-8.418;2023-02-28T16:50:21;4.20;;;1.23;;
50429;SDS011;36359;41.556;-8.418;2023-02-28T16:52:48;7.83;;;1.40;;
50429;SDS011;36359;41.556;-8.418;2023-02-28T16:55:15;5.77;;;1.40;;
50429;SDS011;36359;41.556;-8.418;2023-02-28T16:57:41;4.87;;;1.30;;
50429;SDS011;36359;41.556;-8.418;2023-02-28T17:00:10;7.10;;;1.60;;
50429;SDS011;36359;41.556;-8.418;2023-02-28T17:02:37;4.27;;;1.43;;
50429;SDS011;36359;41.556;-8.418;2023-02-28T17:05:03;3.53;;;1.07;;
50429;SDS011;36359;41.556;-8.418;2023-02-28T17:07:29;3.90;;;1.30;;
50429;SDS011;36359;41.556;-8.418;2023-02-28T17:09:55;7.63;;;1.83;;
50429;SDS011;36359;41.556;-8.418;2023-02-28T17:12:20;4.57;;;1.70;;
50429;SDS011;36359;41.556;-8.418;2023-02-28T17:14:46;4.63;;;1.70;;
50429;SDS011;36359;41.556;-8.418;2023-02-28T17:17:20;6.27;;;1.90;;
50429;SDS011;36359;41.556;-8.418;2023-02-28T17:19:47;3.63;;;1.60;;
50429;SDS011;36359;41.556;-8.418;2023-02-28T17:22:13;8.40;;;1.90;;
50429;SDS011;36359;41.556;-8.418;2023-02-28T17:24:39;4.63;;;2.10;;
50429;SDS011;36359;41.556;-8.418;2023-02-28T17:27:04;5.20;;;1.50;;
50429;SDS011;36359;41.556;-8.418;2023-02-28T17:29:32;5.13;;;2.03;;
50429;SDS011;36359;41.556;-8.418;2023-02-28T17:31:58;5.77;;;2.20;;
50429;SDS011;36359;41.556;-8.418;2023-02-28T17:34:24;9.47;;;2.27;;